sensor_id;sensor_type;location;lat;lon;timestamp;P1;durP1;ratioP1;P2;durP2;ratioP2
23716;SDS011;22094;52.130;5.598;2022-10-19T00:01:47;10.32;;;8.38;;
23716;SDS011;22094;52.130;5.598;2022-10-19T00:04:12;8.80;;;6.93;;
23716;SDS011;22094;52.130;5.598;2022-10-19T00:06:38;10.40;;;7.18;;
23716;SDS011;22094;52.130;5.598;2022-10-19T00:09:05;9.02;;;6.82;;
23716;SDS011;22094;52.130;5.598;2022-10-19T00:11:33;9.00;;;8.10;;
23716;SDS011;22094;52.130;5.598;2022-10-19T00:14:00;7.90;;;7.00;;
23716;SDS011;22094;52.130;5.598;2022-10-19T00:16:28;9.35;;;7.65;;
23716;SDS011;22094;52.130;5.598;2022-10-19T00:18:55;7.60;;;6.80;;
23716;SDS011;22094;52.130;5.598;2022-10-19T00:21:22;9.10;;;7.32;;
23716;SDS011;22094;52.130;5.598;2022-10-19T00:23:48;9.98;;;7.28;;
23716;SDS011;22094;52.130;5.598;2022-10-19T00:26:13;7.55;;;6.72;;
23716;SDS011;22094;52.130;5.598;2022-10-19T00:28:40;9.55;;;7.18;;
23716;SDS011;22094;52.130;5.598;2022-10-19T00:31:07;8.23;;;6.57;;
23716;SDS011;22094;52.130;5.598;2022-10-19T00:33:35;8.50;;;6.82;;
23716;SDS011;22094;52.130;5.598;2022-10-19T00:36:01;7.55;;;6.60;;
23716;SDS011;22094;52.130;5.598;2022-10-19T00:38:27;9.10;;;6.43;;
23716;SDS011;22094;52.130;5.598;2022-10-19T00:40:53;9.43;;;6.55;;
23716;SDS011;22094;52.130;5.598;2022-10-19T00:43:20;7.90;;;6.35;;
23716;SDS011;22094;52.130;5.598;2022-10-19T00:45:48;11.48;;;7.65;;
23716;SDS011;22094;52.130;5.598;2022-10-19T00:48:16;8.93;;;6.80;;
23716;SDS011;22094;52.130;5.598;2022-10-19T00:50:47;8.52;;;6.70;;
23716;SDS011;22094;52.130;5.598;2022-10-19T00:53:14;11.60;;;7.10;;
23716;SDS011;22094;52.130;5.598;2022-10-19T00:55:40;9.50;;;6.90;;
23716;SDS011;22094;52.130;5.598;2022-10-19T00:58:06;7.60;;;6.30;;
23716;SDS011;22094;52.130;5.598;2022-10-19T01:00:32;14.10;;;7.25;;
23716;SDS011;22094;52.130;5.598;2022-10-19T01:02:58;9.88;;;7.15;;
23716;SDS011;22094;52.130;5.598;2022-10-19T01:05:25;10.80;;;7.20;;
23716;SDS011;22094;52.130;5.598;2022-10-19T01:07:52;11.55;;;7.10;;
23716;SDS011;22094;52.130;5.598;2022-10-19T01:10:18;9.60;;;7.45;;
23716;SDS011;22094;52.130;5.598;2022-10-19T01:15:17;11.40;;;5.95;;
23716;SDS011;22094;52.130;5.598;2022-10-19T01:23:50;10.63;;;7.00;;
23716;SDS011;22094;52.130;5.598;2022-10-19T01:26:39;11.93;;;7.15;;
23716;SDS011;22094;52.130;5.598;2022-10-19T01:32:21;8.95;;;6.68;;
23716;SDS011;22094;52.130;5.598;2022-10-19T01:35:20;13.93;;;7.20;;
23716;SDS011;22094;52.130;5.598;2022-10-19T01:45:56;12.85;;;8.45;;
23716;SDS011;22094;52.130;5.598;2022-10-19T01:48:29;17.92;;;9.43;;
23716;SDS011;22094;52.130;5.598;2022-10-19T01:51:15;14.88;;;8.88;;
23716;SDS011;22094;52.130;5.598;2022-10-19T01:53:50;16.80;;;9.00;;
23716;SDS011;22094;52.130;5.598;2022-10-19T01:56:20;17.73;;;9.57;;
23716;SDS011;22094;52.130;5.598;2022-10-19T01:58:50;11.82;;;7.70;;
23716;SDS011;22094;52.130;5.598;2022-10-19T02:01:20;17.50;;;9.23;;
23716;SDS011;22094;52.130;5.598;2022-10-19T02:03:53;18.40;;;8.15;;
23716;SDS011;22094;52.130;5.598;2022-10-19T02:06:20;13.32;;;8.18;;
23716;SDS011;22094;52.130;5.598;2022-10-19T02:08:58;16.48;;;8.32;;
23716;SDS011;22094;52.130;5.598;2022-10-19T02:11:26;14.45;;;8.30;;
23716;SDS011;22094;52.130;5.598;2022-10-19T02:13:54;13.07;;;8.00;;
23716;SDS011;22094;52.130;5.598;2022-10-19T02:16:28;14.43;;;8.38;;
23716;SDS011;22094;52.130;5.598;2022-10-19T02:18:58;12.80;;;7.82;;
23716;SDS011;22094;52.130;5.598;2022-10-19T02:21:25;12.13;;;7.43;;
23716;SDS011;22094;52.130;5.598;2022-10-19T02:23:52;9.90;;;7.25;;
23716;SDS011;22094;52.130;5.598;2022-10-19T02:26:17;13.23;;;7.15;;
23716;SDS011;22094;52.130;5.598;2022-10-19T02:28:44;9.70;;;7.32;;
23716;SDS011;22094;52.130;5.598;2022-10-19T02:31:11;15.02;;;7.90;;
23716;SDS011;22094;52.130;5.598;2022-10-19T02:33:37;10.38;;;7.05;;
23716;SDS011;22094;52.130;5.598;2022-10-19T02:36:03;12.55;;;7.90;;
23716;SDS011;22094;52.130;5.598;2022-10-19T02:38:28;15.70;;;7.35;;
23716;SDS011;22094;52.130;5.598;2022-10-19T02:40:59;9.77;;;6.53;;
23716;SDS011;22094;52.130;5.598;2022-10-19T02:43:40;11.32;;;6.85;;
23716;SDS011;22094;52.130;5.598;2022-10-19T02:46:14;12.80;;;7.40;;
23716;SDS011;22094;52.130;5.598;2022-10-19T02:48:49;14.18;;;7.00;;
23716;SDS011;22094;52.130;5.598;2022-10-19T02:51:29;14.13;;;7.28;;
23716;SDS011;22094;52.130;5.598;2022-10-19T02:53:59;11.85;;;7.03;;
23716;SDS011;22094;52.130;5.598;2022-10-19T02:56:25;9.23;;;7.20;;
23716;SDS011;22094;52.130;5.598;2022-10-19T02:58:51;12.40;;;6.70;;
23716;SDS011;22094;52.130;5.598;2022-10-19T03:01:16;14.07;;;7.60;;
23716;SDS011;22094;52.130;5.598;2022-10-19T03:03:42;13.63;;;6.97;;
23716;SDS011;22094;52.130;5.598;2022-10-19T03:06:07;9.65;;;5.80;;
23716;SDS011;22094;52.130;5.598;2022-10-19T03:08:33;15.60;;;7.57;;
23716;SDS011;22094;52.130;5.598;2022-10-19T03:10:59;11.35;;;6.20;;
23716;SDS011;22094;52.130;5.598;2022-10-19T03:13:25;13.05;;;6.40;;
23716;SDS011;22094;52.130;5.598;2022-10-19T03:15:50;10.65;;;6.47;;
23716;SDS011;22094;52.130;5.598;2022-10-19T03:18:16;13.00;;;7.28;;
23716;SDS011;22094;52.130;5.598;2022-10-19T03:20:42;11.98;;;6.93;;
23716;SDS011;22094;52.130;5.598;2022-10-19T03:23:07;14.70;;;7.78;;
23716;SDS011;22094;52.130;5.598;2022-10-19T03:25:33;14.75;;;7.32;;
23716;SDS011;22094;52.130;5.598;2022-10-19T03:27:59;12.38;;;6.50;;
23716;SDS011;22094;52.130;5.598;2022-10-19T03:30:24;13.38;;;6.93;;
23716;SDS011;22094;52.130;5.598;2022-10-19T03:32:50;12.15;;;6.38;;
23716;SDS011;22094;52.130;5.598;2022-10-19T03:35:15;12.15;;;6.82;;
23716;SDS011;22094;52.130;5.598;2022-10-19T03:37:41;16.25;;;7.20;;
23716;SDS011;22094;52.130;5.598;2022-10-19T03:40:07;11.27;;;6.53;;
23716;SDS011;22094;52.130;5.598;2022-10-19T03:42:33;14.52;;;7.05;;
23716;SDS011;22094;52.130;5.598;2022-10-19T03:44:58;15.23;;;7.05;;
23716;SDS011;22094;52.130;5.598;2022-10-19T03:47:24;13.93;;;6.28;;
23716;SDS011;22094;52.130;5.598;2022-10-19T03:49:49;19.48;;;6.57;;
23716;SDS011;22094;52.130;5.598;2022-10-19T03:52:16;10.70;;;5.70;;
23716;SDS011;22094;52.130;5.598;2022-10-19T03:54:45;11.25;;;5.75;;
23716;SDS011;22094;52.130;5.598;2022-10-19T03:57:13;13.65;;;5.55;;
23716;SDS011;22094;52.130;5.598;2022-10-19T03:59:39;9.63;;;6.00;;
23716;SDS011;22094;52.130;5.598;2022-10-19T04:02:04;12.80;;;6.10;;
23716;SDS011;22094;52.130;5.598;2022-10-19T04:04:33;17.10;;;6.35;;
23716;SDS011;22094;52.130;5.598;2022-10-19T04:06:59;12.38;;;6.18;;
23716;SDS011;22094;52.130;5.598;2022-10-19T04:09:24;13.48;;;6.57;;
23716;SDS011;22094;52.130;5.598;2022-10-19T04:11:50;13.40;;;5.68;;
23716;SDS011;22094;52.130;5.598;2022-10-19T04:14:17;13.52;;;5.43;;
23716;SDS011;22094;52.130;5.598;2022-10-19T04:16:44;9.27;;;4.80;;
23716;SDS011;22094;52.130;5.598;2022-10-19T04:19:13;11.32;;;5.03;;
23716;SDS011;22094;52.130;5.598;2022-10-19T04:21:40;9.43;;;4.85;;
23716;SDS011;22094;52.130;5.598;2022-10-19T04:24:09;8.50;;;5.47;;
23716;SDS011;22094;52.130;5.598;2022-10-19T04:26:38;10.65;;;5.40;;
23716;SDS011;22094;52.130;5.598;2022-10-19T04:29:08;7.60;;;5.15;;
23716;SDS011;22094;52.130;5.598;2022-10-19T04:31:34;8.23;;;4.65;;
23716;SDS011;22094;52.130;5.598;2022-10-19T04:34:00;9.30;;;5.05;;
23716;SDS011;22094;52.130;5.598;2022-10-19T04:36:25;8.20;;;5.75;;
23716;SDS011;22094;52.130;5.598;2022-10-19T04:38:51;9.65;;;5.30;;
23716;SDS011;22094;52.130;5.598;2022-10-19T04:41:17;13.25;;;5.43;;
23716;SDS011;22094;52.130;5.598;2022-10-19T04:43:44;12.65;;;6.00;;
23716;SDS011;22094;52.130;5.598;2022-10-19T04:46:14;10.02;;;5.50;;
23716;SDS011;22094;52.130;5.598;2022-10-19T04:48:41;9.50;;;5.80;;
23716;SDS011;22094;52.130;5.598;2022-10-19T04:51:08;7.90;;;5.45;;
23716;SDS011;22094;52.130;5.598;2022-10-19T04:53:40;8.05;;;5.53;;
23716;SDS011;22094;52.130;5.598;2022-10-19T04:56:07;13.30;;;5.70;;
23716;SDS011;22094;52.130;5.598;2022-10-19T04:58:35;14.00;;;6.03;;
23716;SDS011;22094;52.130;5.598;2022-10-19T05:01:08;8.27;;;5.43;;
23716;SDS011;22094;52.130;5.598;2022-10-19T05:03:40;9.52;;;5.90;;
23716;SDS011;22094;52.130;5.598;2022-10-19T05:06:06;10.38;;;5.93;;
23716;SDS011;22094;52.130;5.598;2022-10-19T05:08:33;10.90;;;6.40;;
23716;SDS011;22094;52.130;5.598;2022-10-19T05:11:03;10.50;;;7.13;;
23716;SDS011;22094;52.130;5.598;2022-10-19T05:13:31;11.30;;;8.25;;
23716;SDS011;22094;52.130;5.598;2022-10-19T05:16:00;16.13;;;10.65;;
23716;SDS011;22094;52.130;5.598;2022-10-19T05:18:27;25.85;;;16.85;;
23716;SDS011;22094;52.130;5.598;2022-10-19T05:21:06;24.70;;;16.35;;
23716;SDS011;22094;52.130;5.598;2022-10-19T05:23:34;27.58;;;18.17;;
23716;SDS011;22094;52.130;5.598;2022-10-19T05:26:04;22.42;;;15.73;;
23716;SDS011;22094;52.130;5.598;2022-10-19T05:28:31;13.30;;;7.57;;
23716;SDS011;22094;52.130;5.598;2022-10-19T05:31:07;13.20;;;6.75;;
23716;SDS011;22094;52.130;5.598;2022-10-19T05:33:41;14.55;;;5.97;;
23716;SDS011;22094;52.130;5.598;2022-10-19T05:36:15;15.10;;;6.82;;
23716;SDS011;22094;52.130;5.598;2022-10-19T05:38:42;14.93;;;5.75;;
23716;SDS011;22094;52.130;5.598;2022-10-19T05:41:08;9.75;;;5.40;;
23716;SDS011;22094;52.130;5.598;2022-10-19T05:43:34;11.85;;;6.43;;
23716;SDS011;22094;52.130;5.598;2022-10-19T05:46:04;14.25;;;6.00;;
23716;SDS011;22094;52.130;5.598;2022-10-19T05:48:31;9.20;;;5.53;;
23716;SDS011;22094;52.130;5.598;2022-10-19T05:50:58;19.52;;;9.73;;
23716;SDS011;22094;52.130;5.598;2022-10-19T05:53:24;13.43;;;7.82;;
23716;SDS011;22094;52.130;5.598;2022-10-19T05:55:50;15.30;;;8.70;;
23716;SDS011;22094;52.130;5.598;2022-10-19T05:58:15;15.25;;;7.70;;
23716;SDS011;22094;52.130;5.598;2022-10-19T06:00:41;17.63;;;8.02;;
23716;SDS011;22094;52.130;5.598;2022-10-19T06:03:06;14.73;;;8.23;;
23716;SDS011;22094;52.130;5.598;2022-10-19T06:05:34;15.55;;;7.88;;
23716;SDS011;22094;52.130;5.598;2022-10-19T06:08:00;15.13;;;7.57;;
23716;SDS011;22094;52.130;5.598;2022-10-19T06:10:26;13.98;;;7.40;;
23716;SDS011;22094;52.130;5.598;2022-10-19T06:12:51;15.20;;;7.32;;
23716;SDS011;22094;52.130;5.598;2022-10-19T06:15:17;16.25;;;6.70;;
23716;SDS011;22094;52.130;5.598;2022-10-19T06:17:42;17.20;;;7.05;;
23716;SDS011;22094;52.130;5.598;2022-10-19T06:20:08;14.50;;;6.35;;
23716;SDS011;22094;52.130;5.598;2022-10-19T06:22:34;23.55;;;7.55;;
23716;SDS011;22094;52.130;5.598;2022-10-19T06:24:59;22.23;;;7.63;;
23716;SDS011;22094;52.130;5.598;2022-10-19T06:27:25;21.30;;;7.85;;
23716;SDS011;22094;52.130;5.598;2022-10-19T06:29:50;14.00;;;7.20;;
23716;SDS011;22094;52.130;5.598;2022-10-19T06:32:16;19.02;;;8.48;;
23716;SDS011;22094;52.130;5.598;2022-10-19T06:34:41;19.60;;;9.02;;
23716;SDS011;22094;52.130;5.598;2022-10-19T06:37:07;18.27;;;10.07;;
23716;SDS011;22094;52.130;5.598;2022-10-19T06:39:33;18.38;;;9.70;;
23716;SDS011;22094;52.130;5.598;2022-10-19T06:41:58;18.83;;;10.60;;
23716;SDS011;22094;52.130;5.598;2022-10-19T06:44:24;20.90;;;10.75;;
23716;SDS011;22094;52.130;5.598;2022-10-19T06:46:50;22.05;;;11.55;;
23716;SDS011;22094;52.130;5.598;2022-10-19T06:49:16;21.10;;;12.07;;
23716;SDS011;22094;52.130;5.598;2022-10-19T06:51:41;25.30;;;12.65;;
23716;SDS011;22094;52.130;5.598;2022-10-19T06:54:07;21.92;;;13.25;;
23716;SDS011;22094;52.130;5.598;2022-10-19T06:56:32;23.27;;;12.25;;
23716;SDS011;22094;52.130;5.598;2022-10-19T06:58:58;21.65;;;12.18;;
23716;SDS011;22094;52.130;5.598;2022-10-19T07:01:24;25.80;;;12.38;;
23716;SDS011;22094;52.130;5.598;2022-10-19T07:03:50;35.05;;;16.80;;
23716;SDS011;22094;52.130;5.598;2022-10-19T07:06:16;40.03;;;21.10;;
23716;SDS011;22094;52.130;5.598;2022-10-19T07:08:42;33.70;;;17.48;;
23716;SDS011;22094;52.130;5.598;2022-10-19T07:11:09;26.90;;;14.07;;
23716;SDS011;22094;52.130;5.598;2022-10-19T07:13:36;23.80;;;13.18;;
23716;SDS011;22094;52.130;5.598;2022-10-19T07:16:03;27.85;;;14.95;;
23716;SDS011;22094;52.130;5.598;2022-10-19T07:18:35;21.92;;;13.10;;
23716;SDS011;22094;52.130;5.598;2022-10-19T07:21:03;23.85;;;12.43;;
23716;SDS011;22094;52.130;5.598;2022-10-19T07:23:32;27.30;;;13.02;;
23716;SDS011;22094;52.130;5.598;2022-10-19T07:26:02;30.80;;;14.27;;
23716;SDS011;22094;52.130;5.598;2022-10-19T07:28:33;34.40;;;14.65;;
23716;SDS011;22094;52.130;5.598;2022-10-19T07:31:03;38.42;;;14.18;;
23716;SDS011;22094;52.130;5.598;2022-10-19T07:33:30;33.83;;;13.75;;
23716;SDS011;22094;52.130;5.598;2022-10-19T07:36:00;26.45;;;13.43;;
23716;SDS011;22094;52.130;5.598;2022-10-19T07:38:26;26.23;;;13.35;;
23716;SDS011;22094;52.130;5.598;2022-10-19T07:41:04;20.05;;;12.73;;
23716;SDS011;22094;52.130;5.598;2022-10-19T07:43:31;21.00;;;13.25;;
23716;SDS011;22094;52.130;5.598;2022-10-19T07:45:58;23.45;;;14.55;;
23716;SDS011;22094;52.130;5.598;2022-10-19T07:48:32;28.88;;;15.18;;
23716;SDS011;22094;52.130;5.598;2022-10-19T07:50:59;28.08;;;14.85;;
23716;SDS011;22094;52.130;5.598;2022-10-19T07:53:26;23.75;;;14.77;;
23716;SDS011;22094;52.130;5.598;2022-10-19T07:55:52;18.33;;;12.85;;
23716;SDS011;22094;52.130;5.598;2022-10-19T07:58:17;20.23;;;13.45;;
23716;SDS011;22094;52.130;5.598;2022-10-19T08:00:43;19.30;;;12.88;;
23716;SDS011;22094;52.130;5.598;2022-10-19T08:03:08;20.85;;;13.32;;
23716;SDS011;22094;52.130;5.598;2022-10-19T08:05:34;17.75;;;12.15;;
23716;SDS011;22094;52.130;5.598;2022-10-19T08:08:00;22.90;;;12.85;;
23716;SDS011;22094;52.130;5.598;2022-10-19T08:10:26;16.33;;;12.05;;
23716;SDS011;22094;52.130;5.598;2022-10-19T08:12:52;19.65;;;11.20;;
23716;SDS011;22094;52.130;5.598;2022-10-19T08:15:17;20.38;;;11.68;;
23716;SDS011;22094;52.130;5.598;2022-10-19T08:17:43;16.30;;;11.32;;
23716;SDS011;22094;52.130;5.598;2022-10-19T08:20:08;18.88;;;10.95;;
23716;SDS011;22094;52.130;5.598;2022-10-19T08:22:34;18.95;;;10.07;;
23716;SDS011;22094;52.130;5.598;2022-10-19T08:25:00;18.13;;;9.30;;
23716;SDS011;22094;52.130;5.598;2022-10-19T08:27:26;11.00;;;9.45;;
23716;SDS011;22094;52.130;5.598;2022-10-19T08:29:53;16.30;;;9.18;;
23716;SDS011;22094;52.130;5.598;2022-10-19T08:32:18;15.10;;;8.77;;
23716;SDS011;22094;52.130;5.598;2022-10-19T08:34:44;13.25;;;8.30;;
23716;SDS011;22094;52.130;5.598;2022-10-19T08:37:10;17.30;;;8.65;;
23716;SDS011;22094;52.130;5.598;2022-10-19T08:39:35;16.60;;;7.78;;
23716;SDS011;22094;52.130;5.598;2022-10-19T08:42:02;9.63;;;7.25;;
23716;SDS011;22094;52.130;5.598;2022-10-19T08:47:43;17.35;;;6.80;;
23716;SDS011;22094;52.130;5.598;2022-10-19T08:50:21;11.30;;;6.80;;
23716;SDS011;22094;52.130;5.598;2022-10-19T08:53:36;13.07;;;6.90;;
23716;SDS011;22094;52.130;5.598;2022-10-19T08:58:48;11.30;;;6.13;;
23716;SDS011;22094;52.130;5.598;2022-10-19T09:04:18;21.35;;;7.25;;
23716;SDS011;22094;52.130;5.598;2022-10-19T09:06:52;13.32;;;6.45;;
23716;SDS011;22094;52.130;5.598;2022-10-19T09:09:25;14.05;;;6.20;;
23716;SDS011;22094;52.130;5.598;2022-10-19T09:11:54;10.80;;;5.55;;
23716;SDS011;22094;52.130;5.598;2022-10-19T09:14:28;11.75;;;5.20;;
23716;SDS011;22094;52.130;5.598;2022-10-19T09:16:59;12.18;;;5.07;;
23716;SDS011;22094;52.130;5.598;2022-10-19T09:19:27;9.85;;;5.15;;
23716;SDS011;22094;52.130;5.598;2022-10-19T09:21:56;12.85;;;4.90;;
23716;SDS011;22094;52.130;5.598;2022-10-19T09:27:33;6.57;;;4.53;;
23716;SDS011;22094;52.130;5.598;2022-10-19T09:30:05;13.00;;;5.00;;
23716;SDS011;22094;52.130;5.598;2022-10-19T09:32:58;11.80;;;5.53;;
23716;SDS011;22094;52.130;5.598;2022-10-19T09:35:26;12.15;;;4.78;;
23716;SDS011;22094;52.130;5.598;2022-10-19T09:37:58;15.13;;;5.85;;
23716;SDS011;22094;52.130;5.598;2022-10-19T09:40:25;11.55;;;4.32;;
23716;SDS011;22094;52.130;5.598;2022-10-19T09:42:53;4.85;;;3.33;;
23716;SDS011;22094;52.130;5.598;2022-10-19T09:45:28;9.18;;;3.47;;
23716;SDS011;22094;52.130;5.598;2022-10-19T09:51:12;5.63;;;2.95;;
23716;SDS011;22094;52.130;5.598;2022-10-19T09:53:43;5.60;;;2.63;;
23716;SDS011;22094;52.130;5.598;2022-10-19T09:56:16;9.00;;;2.85;;
23716;SDS011;22094;52.130;5.598;2022-10-19T09:58:56;5.40;;;2.15;;
23716;SDS011;22094;52.130;5.598;2022-10-19T10:01:30;8.20;;;2.75;;
23716;SDS011;22094;52.130;5.598;2022-10-19T10:04:08;5.93;;;2.40;;
23716;SDS011;22094;52.130;5.598;2022-10-19T10:06:39;6.88;;;2.30;;
23716;SDS011;22094;52.130;5.598;2022-10-19T10:09:06;7.57;;;2.25;;
23716;SDS011;22094;52.130;5.598;2022-10-19T10:11:33;4.70;;;2.20;;
23716;SDS011;22094;52.130;5.598;2022-10-19T10:16:56;7.88;;;2.15;;
23716;SDS011;22094;52.130;5.598;2022-10-19T10:19:25;4.43;;;2.10;;
23716;SDS011;22094;52.130;5.598;2022-10-19T10:21:53;7.82;;;2.00;;
23716;SDS011;22094;52.130;5.598;2022-10-19T10:24:20;7.13;;;1.70;;
23716;SDS011;22094;52.130;5.598;2022-10-19T10:26:49;5.38;;;1.80;;
23716;SDS011;22094;52.130;5.598;2022-10-19T10:29:27;6.47;;;1.90;;
23716;SDS011;22094;52.130;5.598;2022-10-19T10:32:05;6.32;;;2.20;;
23716;SDS011;22094;52.130;5.598;2022-10-19T10:34:54;3.40;;;1.75;;
23716;SDS011;22094;52.130;5.598;2022-10-19T10:37:29;6.15;;;2.08;;
23716;SDS011;22094;52.130;5.598;2022-10-19T10:40:17;8.73;;;2.08;;
23716;SDS011;22094;52.130;5.598;2022-10-19T10:43:00;3.15;;;1.95;;
23716;SDS011;22094;52.130;5.598;2022-10-19T10:45:52;6.60;;;1.88;;
23716;SDS011;22094;52.130;5.598;2022-10-19T10:51:31;8.27;;;1.85;;
23716;SDS011;22094;52.130;5.598;2022-10-19T10:54:17;5.10;;;1.63;;
23716;SDS011;22094;52.130;5.598;2022-10-19T10:56:43;4.25;;;1.67;;
23716;SDS011;22094;52.130;5.598;2022-10-19T10:59:21;6.90;;;2.20;;
23716;SDS011;22094;52.130;5.598;2022-10-19T11:04:28;7.10;;;1.67;;
23716;SDS011;22094;52.130;5.598;2022-10-19T11:07:00;6.45;;;1.52;;
23716;SDS011;22094;52.130;5.598;2022-10-19T11:09:35;3.65;;;1.45;;
23716;SDS011;22094;52.130;5.598;2022-10-19T11:12:08;4.68;;;1.50;;
23716;SDS011;22094;52.130;5.598;2022-10-19T11:14:47;5.82;;;1.83;;
23716;SDS011;22094;52.130;5.598;2022-10-19T11:17:20;7.18;;;1.83;;
23716;SDS011;22094;52.130;5.598;2022-10-19T11:19:49;6.10;;;2.00;;
23716;SDS011;22094;52.130;5.598;2022-10-19T11:22:19;4.68;;;1.80;;
23716;SDS011;22094;52.130;5.598;2022-10-19T11:25:28;4.57;;;1.77;;
23716;SDS011;22094;52.130;5.598;2022-10-19T11:30:50;3.78;;;1.48;;
23716;SDS011;22094;52.130;5.598;2022-10-19T11:38:44;4.28;;;1.95;;
23716;SDS011;22094;52.130;5.598;2022-10-19T11:44:03;2.80;;;1.48;;
23716;SDS011;22094;52.130;5.598;2022-10-19T11:57:03;5.15;;;2.00;;
23716;SDS011;22094;52.130;5.598;2022-10-19T12:02:45;7.20;;;1.77;;
23716;SDS011;22094;52.130;5.598;2022-10-19T12:05:28;4.45;;;1.67;;
23716;SDS011;22094;52.130;5.598;2022-10-19T12:10:56;4.70;;;1.63;;
23716;SDS011;22094;52.130;5.598;2022-10-19T12:13:34;5.03;;;1.80;;
23716;SDS011;22094;52.130;5.598;2022-10-19T12:16:09;5.85;;;1.98;;
23716;SDS011;22094;52.130;5.598;2022-10-19T12:18:46;5.63;;;1.92;;
23716;SDS011;22094;52.130;5.598;2022-10-19T12:21:16;4.20;;;2.00;;
23716;SDS011;22094;52.130;5.598;2022-10-19T12:23:56;5.45;;;1.90;;
23716;SDS011;22094;52.130;5.598;2022-10-19T12:26:23;4.97;;;1.88;;
23716;SDS011;22094;52.130;5.598;2022-10-19T12:28:54;5.25;;;2.25;;
23716;SDS011;22094;52.130;5.598;2022-10-19T12:31:23;4.68;;;1.90;;
23716;SDS011;22094;52.130;5.598;2022-10-19T12:34:25;5.65;;;2.08;;
23716;SDS011;22094;52.130;5.598;2022-10-19T12:40:01;4.88;;;2.10;;
23716;SDS011;22094;52.130;5.598;2022-10-19T12:42:45;4.50;;;2.10;;
23716;SDS011;22094;52.130;5.598;2022-10-19T13:01:07;6.95;;;2.28;;
23716;SDS011;22094;52.130;5.598;2022-10-19T13:04:36;4.40;;;2.10;;
23716;SDS011;22094;52.130;5.598;2022-10-19T13:06:57;7.45;;;2.58;;
23716;SDS011;22094;52.130;5.598;2022-10-19T13:14:44;7.22;;;2.30;;
23716;SDS011;22094;52.130;5.598;2022-10-19T13:27:41;5.28;;;1.73;;
23716;SDS011;22094;52.130;5.598;2022-10-19T13:32:52;3.33;;;1.50;;
23716;SDS011;22094;52.130;5.598;2022-10-19T13:35:31;5.65;;;1.50;;
23716;SDS011;22094;52.130;5.598;2022-10-19T13:40:54;5.97;;;1.58;;
23716;SDS011;22094;52.130;5.598;2022-10-19T13:43:21;5.50;;;2.20;;
23716;SDS011;22094;52.130;5.598;2022-10-19T13:51:35;3.53;;;1.60;;
23716;SDS011;22094;52.130;5.598;2022-10-19T13:57:51;6.75;;;1.80;;
23716;SDS011;22094;52.130;5.598;2022-10-19T14:06:19;3.72;;;1.45;;
23716;SDS011;22094;52.130;5.598;2022-10-19T14:09:04;4.70;;;1.80;;
23716;SDS011;22094;52.130;5.598;2022-10-19T14:11:46;4.88;;;1.70;;
23716;SDS011;22094;52.130;5.598;2022-10-19T14:14:21;4.20;;;1.65;;
23716;SDS011;22094;52.130;5.598;2022-10-19T14:16:53;5.57;;;2.03;;
23716;SDS011;22094;52.130;5.598;2022-10-19T14:21:52;7.43;;;1.63;;
23716;SDS011;22094;52.130;5.598;2022-10-19T14:24:23;7.40;;;2.10;;
23716;SDS011;22094;52.130;5.598;2022-10-19T14:26:55;6.53;;;1.60;;
23716;SDS011;22094;52.130;5.598;2022-10-19T14:29:21;4.78;;;1.70;;
23716;SDS011;22094;52.130;5.598;2022-10-19T14:31:47;4.60;;;1.77;;
23716;SDS011;22094;52.130;5.598;2022-10-19T14:34:13;8.15;;;1.60;;
23716;SDS011;22094;52.130;5.598;2022-10-19T14:36:44;3.67;;;1.67;;
23716;SDS011;22094;52.130;5.598;2022-10-19T14:39:31;5.82;;;1.95;;
23716;SDS011;22094;52.130;5.598;2022-10-19T14:42:02;4.18;;;1.52;;
23716;SDS011;22094;52.130;5.598;2022-10-19T14:49:58;6.13;;;3.30;;
23716;SDS011;22094;52.130;5.598;2022-10-19T14:52:31;6.97;;;2.72;;
23716;SDS011;22094;52.130;5.598;2022-10-19T14:55:09;7.20;;;3.60;;
23716;SDS011;22094;52.130;5.598;2022-10-19T15:14:45;4.63;;;1.48;;
23716;SDS011;22094;52.130;5.598;2022-10-19T15:17:28;4.63;;;1.25;;
23716;SDS011;22094;52.130;5.598;2022-10-19T15:26:17;6.45;;;1.83;;
23716;SDS011;22094;52.130;5.598;2022-10-19T15:28:46;3.15;;;1.67;;
23716;SDS011;22094;52.130;5.598;2022-10-19T15:31:14;3.83;;;1.55;;
23716;SDS011;22094;52.130;5.598;2022-10-19T15:33:49;5.47;;;1.73;;
23716;SDS011;22094;52.130;5.598;2022-10-19T15:36:17;6.93;;;1.80;;
23716;SDS011;22094;52.130;5.598;2022-10-19T15:38:58;6.32;;;1.98;;
23716;SDS011;22094;52.130;5.598;2022-10-19T15:41:35;6.13;;;2.00;;
23716;SDS011;22094;52.130;5.598;2022-10-19T15:44:05;5.30;;;2.28;;
23716;SDS011;22094;52.130;5.598;2022-10-19T15:47:10;5.40;;;2.25;;
23716;SDS011;22094;52.130;5.598;2022-10-19T15:52:16;6.57;;;2.40;;
23716;SDS011;22094;52.130;5.598;2022-10-19T15:54:46;7.10;;;2.70;;
23716;SDS011;22094;52.130;5.598;2022-10-19T15:57:24;4.45;;;2.67;;
23716;SDS011;22094;52.130;5.598;2022-10-19T15:59:52;6.45;;;2.78;;
23716;SDS011;22094;52.130;5.598;2022-10-19T16:02:18;9.63;;;3.10;;
23716;SDS011;22094;52.130;5.598;2022-10-19T16:04:44;7.15;;;3.30;;
23716;SDS011;22094;52.130;5.598;2022-10-19T16:07:13;7.90;;;3.38;;
23716;SDS011;22094;52.130;5.598;2022-10-19T16:09:48;5.75;;;3.47;;
23716;SDS011;22094;52.130;5.598;2022-10-19T16:12:14;5.72;;;3.47;;
23716;SDS011;22094;52.130;5.598;2022-10-19T16:14:40;5.38;;;3.42;;
23716;SDS011;22094;52.130;5.598;2022-10-19T16:17:05;6.35;;;3.63;;
23716;SDS011;22094;52.130;5.598;2022-10-19T16:19:31;8.95;;;3.83;;
23716;SDS011;22094;52.130;5.598;2022-10-19T16:21:57;6.20;;;4.05;;
23716;SDS011;22094;52.130;5.598;2022-10-19T16:24:22;6.65;;;4.15;;
23716;SDS011;22094;52.130;5.598;2022-10-19T16:26:48;8.65;;;4.30;;
23716;SDS011;22094;52.130;5.598;2022-10-19T16:29:13;9.77;;;4.45;;
23716;SDS011;22094;52.130;5.598;2022-10-19T16:31:39;6.93;;;4.32;;
23716;SDS011;22094;52.130;5.598;2022-10-19T16:34:04;8.68;;;4.47;;
23716;SDS011;22094;52.130;5.598;2022-10-19T16:36:30;13.57;;;5.00;;
23716;SDS011;22094;52.130;5.598;2022-10-19T16:38:58;8.93;;;4.00;;
23716;SDS011;22094;52.130;5.598;2022-10-19T16:41:25;12.27;;;4.55;;
23716;SDS011;22094;52.130;5.598;2022-10-19T16:43:54;7.63;;;4.10;;
23716;SDS011;22094;52.130;5.598;2022-10-19T16:46:20;10.48;;;5.03;;
23716;SDS011;22094;52.130;5.598;2022-10-19T16:48:47;10.68;;;4.68;;
23716;SDS011;22094;52.130;5.598;2022-10-19T16:51:24;10.75;;;4.63;;
23716;SDS011;22094;52.130;5.598;2022-10-19T16:53:57;7.65;;;4.95;;
23716;SDS011;22094;52.130;5.598;2022-10-19T16:56:23;8.07;;;4.72;;
23716;SDS011;22094;52.130;5.598;2022-10-19T16:58:57;12.65;;;5.25;;
23716;SDS011;22094;52.130;5.598;2022-10-19T17:01:25;8.75;;;4.85;;
23716;SDS011;22094;52.130;5.598;2022-10-19T17:03:51;14.60;;;5.57;;
23716;SDS011;22094;52.130;5.598;2022-10-19T17:06:18;9.05;;;5.57;;
23716;SDS011;22094;52.130;5.598;2022-10-19T17:08:47;12.88;;;6.03;;
23716;SDS011;22094;52.130;5.598;2022-10-19T17:13:58;11.40;;;5.95;;
23716;SDS011;22094;52.130;5.598;2022-10-19T17:19:41;13.98;;;6.18;;
23716;SDS011;22094;52.130;5.598;2022-10-19T17:22:07;10.55;;;6.60;;
23716;SDS011;22094;52.130;5.598;2022-10-19T17:24:50;8.27;;;6.43;;
23716;SDS011;22094;52.130;5.598;2022-10-19T17:27:31;10.35;;;6.40;;
23716;SDS011;22094;52.130;5.598;2022-10-19T17:30:09;13.13;;;6.22;;
23716;SDS011;22094;52.130;5.598;2022-10-19T17:33:07;10.32;;;6.38;;
23716;SDS011;22094;52.130;5.598;2022-10-19T17:35:46;11.68;;;6.20;;
23716;SDS011;22094;52.130;5.598;2022-10-19T17:38:17;10.85;;;6.10;;
23716;SDS011;22094;52.130;5.598;2022-10-19T17:41:16;11.20;;;7.00;;
23716;SDS011;22094;52.130;5.598;2022-10-19T17:43:46;12.75;;;7.28;;